sensor_id;sensor_type;location;lat;lon;timestamp;P1;durP1;ratioP1;P2;durP2;ratioP2
55202;SDS011;41077;52.956;6.796;2022-07-23T00:00:17;120.38;;;114.35;;
55202;SDS011;41077;52.956;6.796;2022-07-23T00:02:43;121.97;;;116.05;;
55202;SDS011;41077;52.956;6.796;2022-07-23T00:05:09;112.03;;;106.07;;
55202;SDS011;41077;52.956;6.796;2022-07-23T00:07:35;115.40;;;109.75;;
55202;SDS011;41077;52.956;6.796;2022-07-23T00:10:01;116.10;;;110.32;;
55202;SDS011;41077;52.956;6.796;2022-07-23T00:12:27;120.45;;;114.18;;
55202;SDS011;41077;52.956;6.796;2022-07-23T00:14:53;118.95;;;112.80;;
55202;SDS011;41077;52.956;6.796;2022-07-23T00:17:18;124.80;;;118.45;;
55202;SDS011;41077;52.956;6.796;2022-07-23T00:19:44;120.30;;;114.35;;
55202;SDS011;41077;52.956;6.796;2022-07-23T00:22:10;118.50;;;111.80;;
55202;SDS011;41077;52.956;6.796;2022-07-23T00:24:35;123.18;;;116.80;;
55202;SDS011;41077;52.956;6.796;2022-07-23T00:27:01;117.60;;;111.53;;
55202;SDS011;41077;52.956;6.796;2022-07-23T00:29:27;125.90;;;119.63;;
55202;SDS011;41077;52.956;6.796;2022-07-23T00:31:52;124.30;;;118.05;;
55202;SDS011;41077;52.956;6.796;2022-07-23T00:34:18;119.20;;;112.97;;
55202;SDS011;41077;52.956;6.796;2022-07-23T00:36:44;120.32;;;113.68;;
55202;SDS011;41077;52.956;6.796;2022-07-23T00:39:09;117.60;;;110.80;;
55202;SDS011;41077;52.956;6.796;2022-07-23T00:41:35;121.75;;;115.65;;
55202;SDS011;41077;52.956;6.796;2022-07-23T00:44:17;124.80;;;118.40;;
55202;SDS011;41077;52.956;6.796;2022-07-23T00:46:45;118.75;;;112.45;;
55202;SDS011;41077;52.956;6.796;2022-07-23T00:49:12;120.88;;;114.53;;
55202;SDS011;41077;52.956;6.796;2022-07-23T00:51:37;122.30;;;115.78;;
55202;SDS011;41077;52.956;6.796;2022-07-23T00:54:03;118.95;;;112.70;;
55202;SDS011;41077;52.956;6.796;2022-07-23T00:56:29;118.28;;;111.78;;
55202;SDS011;41077;52.956;6.796;2022-07-23T00:58:56;120.53;;;114.30;;
55202;SDS011;41077;52.956;6.796;2022-07-23T01:01:22;112.68;;;107.07;;
55202;SDS011;41077;52.956;6.796;2022-07-23T01:03:48;119.55;;;113.00;;
55202;SDS011;41077;52.956;6.796;2022-07-23T01:06:14;121.57;;;115.45;;
55202;SDS011;41077;52.956;6.796;2022-07-23T01:08:40;117.93;;;112.00;;
55202;SDS011;41077;52.956;6.796;2022-07-23T01:11:06;109.63;;;104.00;;
55202;SDS011;41077;52.956;6.796;2022-07-23T01:13:32;123.22;;;116.55;;
55202;SDS011;41077;52.956;6.796;2022-07-23T01:15:59;122.68;;;116.30;;
55202;SDS011;41077;52.956;6.796;2022-07-23T01:18:24;123.05;;;116.93;;
55202;SDS011;41077;52.956;6.796;2022-07-23T01:20:50;123.90;;;117.32;;
55202;SDS011;41077;52.956;6.796;2022-07-23T01:23:16;119.68;;;113.35;;
55202;SDS011;41077;52.956;6.796;2022-07-23T01:25:54;124.47;;;117.35;;
55202;SDS011;41077;52.956;6.796;2022-07-23T01:28:20;116.78;;;110.70;;
55202;SDS011;41077;52.956;6.796;2022-07-23T01:30:46;126.30;;;119.85;;
55202;SDS011;41077;52.956;6.796;2022-07-23T01:33:13;119.85;;;113.50;;
55202;SDS011;41077;52.956;6.796;2022-07-23T01:35:39;121.10;;;115.00;;
55202;SDS011;41077;52.956;6.796;2022-07-23T01:38:05;123.85;;;117.57;;
55202;SDS011;41077;52.956;6.796;2022-07-23T01:40:31;127.65;;;121.07;;
55202;SDS011;41077;52.956;6.796;2022-07-23T01:42:57;114.80;;;108.78;;
55202;SDS011;41077;52.956;6.796;2022-07-23T01:45:22;117.93;;;111.88;;
55202;SDS011;41077;52.956;6.796;2022-07-23T01:47:48;117.40;;;111.30;;
55202;SDS011;41077;52.956;6.796;2022-07-23T01:50:14;122.38;;;115.68;;
55202;SDS011;41077;52.956;6.796;2022-07-23T01:52:40;128.35;;;121.63;;
55202;SDS011;41077;52.956;6.796;2022-07-23T01:55:07;129.43;;;123.03;;
55202;SDS011;41077;52.956;6.796;2022-07-23T01:57:33;117.03;;;111.05;;
55202;SDS011;41077;52.956;6.796;2022-07-23T01:59:59;131.20;;;124.45;;
55202;SDS011;41077;52.956;6.796;2022-07-23T02:02:25;131.65;;;124.97;;
55202;SDS011;41077;52.956;6.796;2022-07-23T02:04:50;133.73;;;127.03;;
55202;SDS011;41077;52.956;6.796;2022-07-23T02:07:16;120.50;;;114.28;;
55202;SDS011;41077;52.956;6.796;2022-07-23T02:09:42;134.27;;;127.18;;
55202;SDS011;41077;52.956;6.796;2022-07-23T02:12:08;135.18;;;128.45;;
55202;SDS011;41077;52.956;6.796;2022-07-23T02:14:33;136.73;;;129.07;;
55202;SDS011;41077;52.956;6.796;2022-07-23T02:16:59;129.35;;;122.78;;
55202;SDS011;41077;52.956;6.796;2022-07-23T02:19:25;123.85;;;117.63;;
55202;SDS011;41077;52.956;6.796;2022-07-23T02:21:51;130.63;;;124.03;;
55202;SDS011;41077;52.956;6.796;2022-07-23T02:24:16;139.13;;;132.20;;
55202;SDS011;41077;52.956;6.796;2022-07-23T02:26:42;142.35;;;135.27;;
55202;SDS011;41077;52.956;6.796;2022-07-23T02:29:09;130.65;;;124.05;;
55202;SDS011;41077;52.956;6.796;2022-07-23T02:31:34;133.82;;;127.13;;
55202;SDS011;41077;52.956;6.796;2022-07-23T02:34:00;138.43;;;131.32;;
55202;SDS011;41077;52.956;6.796;2022-07-23T02:36:26;137.43;;;130.68;;
55202;SDS011;41077;52.956;6.796;2022-07-23T02:38:52;143.18;;;136.00;;
55202;SDS011;41077;52.956;6.796;2022-07-23T02:41:18;150.82;;;143.07;;
55202;SDS011;41077;52.956;6.796;2022-07-23T02:43:44;149.45;;;141.77;;
55202;SDS011;41077;52.956;6.796;2022-07-23T02:46:10;145.52;;;138.25;;
55202;SDS011;41077;52.956;6.796;2022-07-23T02:48:35;142.90;;;135.75;;
55202;SDS011;41077;52.956;6.796;2022-07-23T02:51:01;153.45;;;145.38;;
55202;SDS011;41077;52.956;6.796;2022-07-23T02:53:27;166.80;;;158.55;;
55202;SDS011;41077;52.956;6.796;2022-07-23T02:55:52;157.70;;;149.80;;
55202;SDS011;41077;52.956;6.796;2022-07-23T02:58:18;158.20;;;150.52;;
55202;SDS011;41077;52.956;6.796;2022-07-23T03:00:44;173.65;;;164.85;;
55202;SDS011;41077;52.956;6.796;2022-07-23T03:03:09;154.48;;;146.68;;
55202;SDS011;41077;52.956;6.796;2022-07-23T03:05:36;184.43;;;175.25;;
55202;SDS011;41077;52.956;6.796;2022-07-23T03:08:01;161.88;;;153.80;;
55202;SDS011;41077;52.956;6.796;2022-07-23T03:10:27;158.70;;;150.43;;
55202;SDS011;41077;52.956;6.796;2022-07-23T03:12:53;155.70;;;147.45;;
55202;SDS011;41077;52.956;6.796;2022-07-23T03:15:19;158.95;;;150.77;;
55202;SDS011;41077;52.956;6.796;2022-07-23T03:17:44;163.93;;;155.73;;
55202;SDS011;41077;52.956;6.796;2022-07-23T03:20:10;168.13;;;159.82;;
55202;SDS011;41077;52.956;6.796;2022-07-23T03:22:36;160.23;;;152.07;;
55202;SDS011;41077;52.956;6.796;2022-07-23T03:25:01;163.70;;;155.43;;
55202;SDS011;41077;52.956;6.796;2022-07-23T03:27:28;171.18;;;162.35;;
55202;SDS011;41077;52.956;6.796;2022-07-23T03:29:55;173.18;;;162.80;;
55202;SDS011;41077;52.956;6.796;2022-07-23T03:32:23;162.88;;;154.60;;
55202;SDS011;41077;52.956;6.796;2022-07-23T03:34:49;168.38;;;159.93;;
55202;SDS011;41077;52.956;6.796;2022-07-23T03:37:15;163.32;;;155.32;;
55202;SDS011;41077;52.956;6.796;2022-07-23T03:39:41;174.18;;;165.70;;
55202;SDS011;41077;52.956;6.796;2022-07-23T03:42:07;165.45;;;157.18;;
55202;SDS011;41077;52.956;6.796;2022-07-23T03:44:34;162.50;;;154.27;;
55202;SDS011;41077;52.956;6.796;2022-07-23T03:47:02;153.88;;;146.07;;
55202;SDS011;41077;52.956;6.796;2022-07-23T03:49:28;181.77;;;172.38;;
55202;SDS011;41077;52.956;6.796;2022-07-23T03:51:54;171.75;;;163.00;;
55202;SDS011;41077;52.956;6.796;2022-07-23T03:54:19;166.40;;;157.77;;
55202;SDS011;41077;52.956;6.796;2022-07-23T03:56:45;168.27;;;159.48;;
55202;SDS011;41077;52.956;6.796;2022-07-23T03:59:11;174.38;;;165.65;;
55202;SDS011;41077;52.956;6.796;2022-07-23T04:01:37;171.10;;;162.57;;
55202;SDS011;41077;52.956;6.796;2022-07-23T04:04:02;159.20;;;150.85;;
55202;SDS011;41077;52.956;6.796;2022-07-23T04:06:28;169.02;;;160.27;;
55202;SDS011;41077;52.956;6.796;2022-07-23T04:08:54;162.38;;;154.00;;
55202;SDS011;41077;52.956;6.796;2022-07-23T04:11:20;162.35;;;153.98;;
55202;SDS011;41077;52.956;6.796;2022-07-23T04:13:46;161.95;;;153.70;;
55202;SDS011;41077;52.956;6.796;2022-07-23T04:16:12;157.73;;;149.85;;
55202;SDS011;41077;52.956;6.796;2022-07-23T04:18:37;160.25;;;151.50;;
55202;SDS011;41077;52.956;6.796;2022-07-23T04:21:03;171.48;;;162.98;;
55202;SDS011;41077;52.956;6.796;2022-07-23T04:23:29;176.05;;;167.05;;
55202;SDS011;41077;52.956;6.796;2022-07-23T04:25:54;156.98;;;148.82;;
55202;SDS011;41077;52.956;6.796;2022-07-23T04:28:20;157.82;;;149.63;;
55202;SDS011;41077;52.956;6.796;2022-07-23T04:30:46;160.68;;;151.95;;
55202;SDS011;41077;52.956;6.796;2022-07-23T04:33:12;152.70;;;144.43;;
55202;SDS011;41077;52.956;6.796;2022-07-23T04:35:38;176.10;;;166.93;;
55202;SDS011;41077;52.956;6.796;2022-07-23T04:38:04;154.60;;;146.30;;
55202;SDS011;41077;52.956;6.796;2022-07-23T04:40:29;155.05;;;147.23;;
55202;SDS011;41077;52.956;6.796;2022-07-23T04:42:55;159.35;;;150.73;;
55202;SDS011;41077;52.956;6.796;2022-07-23T04:45:21;165.00;;;156.07;;
55202;SDS011;41077;52.956;6.796;2022-07-23T04:47:49;159.70;;;151.55;;
55202;SDS011;41077;52.956;6.796;2022-07-23T04:50:14;187.95;;;178.65;;
55202;SDS011;41077;52.956;6.796;2022-07-23T04:52:44;158.10;;;149.75;;
55202;SDS011;41077;52.956;6.796;2022-07-23T04:55:10;151.95;;;144.13;;
55202;SDS011;41077;52.956;6.796;2022-07-23T04:57:35;163.23;;;154.70;;
55202;SDS011;41077;52.956;6.796;2022-07-23T05:00:01;186.52;;;176.82;;
55202;SDS011;41077;52.956;6.796;2022-07-23T05:02:28;156.98;;;149.02;;
55202;SDS011;41077;52.956;6.796;2022-07-23T05:04:54;143.98;;;136.55;;
55202;SDS011;41077;52.956;6.796;2022-07-23T05:07:19;162.48;;;153.57;;
55202;SDS011;41077;52.956;6.796;2022-07-23T05:09:45;155.77;;;147.60;;
55202;SDS011;41077;52.956;6.796;2022-07-23T05:12:11;148.13;;;140.60;;
55202;SDS011;41077;52.956;6.796;2022-07-23T05:14:37;139.15;;;131.43;;
55202;SDS011;41077;52.956;6.796;2022-07-23T05:17:02;145.95;;;137.73;;
55202;SDS011;41077;52.956;6.796;2022-07-23T05:19:28;141.48;;;134.07;;
55202;SDS011;41077;52.956;6.796;2022-07-23T05:21:54;140.55;;;132.75;;
55202;SDS011;41077;52.956;6.796;2022-07-23T05:24:20;163.25;;;154.80;;
55202;SDS011;41077;52.956;6.796;2022-07-23T05:26:45;142.02;;;134.25;;
55202;SDS011;41077;52.956;6.796;2022-07-23T05:29:11;146.85;;;139.05;;
55202;SDS011;41077;52.956;6.796;2022-07-23T05:31:37;169.77;;;160.75;;
55202;SDS011;41077;52.956;6.796;2022-07-23T05:34:02;151.48;;;143.48;;
55202;SDS011;41077;52.956;6.796;2022-07-23T05:36:29;143.40;;;136.07;;
55202;SDS011;41077;52.956;6.796;2022-07-23T05:38:56;137.40;;;130.30;;
55202;SDS011;41077;52.956;6.796;2022-07-23T05:41:22;136.00;;;128.90;;
55202;SDS011;41077;52.956;6.796;2022-07-23T05:43:48;166.98;;;158.07;;
55202;SDS011;41077;52.956;6.796;2022-07-23T05:46:13;175.85;;;167.10;;
55202;SDS011;41077;52.956;6.796;2022-07-23T05:48:39;137.20;;;130.00;;
55202;SDS011;41077;52.956;6.796;2022-07-23T05:51:05;149.68;;;142.18;;
55202;SDS011;41077;52.956;6.796;2022-07-23T05:53:32;154.18;;;146.18;;
55202;SDS011;41077;52.956;6.796;2022-07-23T05:55:58;144.05;;;136.65;;
55202;SDS011;41077;52.956;6.796;2022-07-23T05:58:23;140.48;;;132.15;;
55202;SDS011;41077;52.956;6.796;2022-07-23T06:00:49;127.63;;;120.80;;
55202;SDS011;41077;52.956;6.796;2022-07-23T06:03:15;155.60;;;147.68;;
55202;SDS011;41077;52.956;6.796;2022-07-23T06:05:40;152.05;;;144.27;;
55202;SDS011;41077;52.956;6.796;2022-07-23T06:08:06;144.52;;;137.35;;
55202;SDS011;41077;52.956;6.796;2022-07-23T06:10:32;131.30;;;124.70;;
55202;SDS011;41077;52.956;6.796;2022-07-23T06:12:57;140.25;;;132.80;;
55202;SDS011;41077;52.956;6.796;2022-07-23T06:15:23;153.10;;;145.45;;
55202;SDS011;41077;52.956;6.796;2022-07-23T06:17:49;134.82;;;127.95;;
55202;SDS011;41077;52.956;6.796;2022-07-23T06:20:15;133.98;;;127.32;;
55202;SDS011;41077;52.956;6.796;2022-07-23T06:22:40;148.02;;;140.30;;
55202;SDS011;41077;52.956;6.796;2022-07-23T06:25:06;147.70;;;140.02;;
55202;SDS011;41077;52.956;6.796;2022-07-23T06:27:32;144.63;;;137.23;;
55202;SDS011;41077;52.956;6.796;2022-07-23T06:29:58;141.07;;;133.50;;
55202;SDS011;41077;52.956;6.796;2022-07-23T06:32:24;143.85;;;136.70;;
55202;SDS011;41077;52.956;6.796;2022-07-23T06:34:50;178.32;;;169.45;;
55202;SDS011;41077;52.956;6.796;2022-07-23T06:37:15;172.05;;;163.82;;
55202;SDS011;41077;52.956;6.796;2022-07-23T06:39:41;190.07;;;180.63;;
55202;SDS011;41077;52.956;6.796;2022-07-23T06:42:07;149.50;;;141.82;;
55202;SDS011;41077;52.956;6.796;2022-07-23T06:44:33;150.38;;;143.02;;
55202;SDS011;41077;52.956;6.796;2022-07-23T06:46:59;162.98;;;154.63;;
55202;SDS011;41077;52.956;6.796;2022-07-23T06:49:24;151.65;;;144.25;;
55202;SDS011;41077;52.956;6.796;2022-07-23T06:51:50;158.63;;;150.93;;
55202;SDS011;41077;52.956;6.796;2022-07-23T06:54:16;201.35;;;191.57;;
55202;SDS011;41077;52.956;6.796;2022-07-23T06:56:41;168.27;;;160.13;;
55202;SDS011;41077;52.956;6.796;2022-07-23T06:59:08;228.20;;;217.38;;
55202;SDS011;41077;52.956;6.796;2022-07-23T07:01:34;142.25;;;134.75;;
55202;SDS011;41077;52.956;6.796;2022-07-23T07:03:59;152.80;;;145.35;;
55202;SDS011;41077;52.956;6.796;2022-07-23T07:06:25;143.93;;;136.68;;
55202;SDS011;41077;52.956;6.796;2022-07-23T07:08:51;155.57;;;147.85;;
55202;SDS011;41077;52.956;6.796;2022-07-23T07:11:16;196.55;;;186.95;;
55202;SDS011;41077;52.956;6.796;2022-07-23T07:13:42;156.20;;;148.80;;
55202;SDS011;41077;52.956;6.796;2022-07-23T07:16:08;141.95;;;134.68;;
55202;SDS011;41077;52.956;6.796;2022-07-23T07:18:33;160.95;;;153.30;;
55202;SDS011;41077;52.956;6.796;2022-07-23T07:20:59;163.93;;;156.13;;
55202;SDS011;41077;52.956;6.796;2022-07-23T07:23:25;156.35;;;148.88;;
55202;SDS011;41077;52.956;6.796;2022-07-23T07:25:50;211.90;;;201.93;;
55202;SDS011;41077;52.956;6.796;2022-07-23T07:28:16;153.20;;;145.52;;
55202;SDS011;41077;52.956;6.796;2022-07-23T07:30:42;198.60;;;189.18;;
55202;SDS011;41077;52.956;6.796;2022-07-23T07:33:07;166.20;;;158.25;;
55202;SDS011;41077;52.956;6.796;2022-07-23T07:35:33;158.25;;;150.60;;
55202;SDS011;41077;52.956;6.796;2022-07-23T07:37:59;152.18;;;144.75;;
55202;SDS011;41077;52.956;6.796;2022-07-23T07:40:25;150.80;;;143.15;;
55202;SDS011;41077;52.956;6.796;2022-07-23T07:42:52;140.57;;;133.85;;
55202;SDS011;41077;52.956;6.796;2022-07-23T07:45:19;159.13;;;151.38;;
55202;SDS011;41077;52.956;6.796;2022-07-23T07:47:46;155.68;;;148.25;;
55202;SDS011;41077;52.956;6.796;2022-07-23T07:50:12;156.02;;;148.60;;
55202;SDS011;41077;52.956;6.796;2022-07-23T07:52:38;155.73;;;148.20;;
55202;SDS011;41077;52.956;6.796;2022-07-23T07:55:04;168.98;;;160.63;;
55202;SDS011;41077;52.956;6.796;2022-07-23T07:57:31;147.10;;;139.88;;
55202;SDS011;41077;52.956;6.796;2022-07-23T07:59:57;160.25;;;152.50;;
55202;SDS011;41077;52.956;6.796;2022-07-23T08:02:23;157.75;;;149.88;;
55202;SDS011;41077;52.956;6.796;2022-07-23T08:04:49;184.07;;;175.43;;
55202;SDS011;41077;52.956;6.796;2022-07-23T08:07:15;156.23;;;148.70;;
55202;SDS011;41077;52.956;6.796;2022-07-23T08:09:41;158.55;;;150.68;;
55202;SDS011;41077;52.956;6.796;2022-07-23T08:12:07;175.70;;;167.15;;
55202;SDS011;41077;52.956;6.796;2022-07-23T08:14:33;187.18;;;178.13;;
55202;SDS011;41077;52.956;6.796;2022-07-23T08:16:58;147.50;;;140.02;;
55202;SDS011;41077;52.956;6.796;2022-07-23T08:19:24;158.25;;;150.70;;
55202;SDS011;41077;52.956;6.796;2022-07-23T08:21:50;172.88;;;164.48;;
55202;SDS011;41077;52.956;6.796;2022-07-23T08:24:15;157.68;;;150.05;;
55202;SDS011;41077;52.956;6.796;2022-07-23T08:26:41;157.48;;;149.90;;
55202;SDS011;41077;52.956;6.796;2022-07-23T08:29:07;162.05;;;154.27;;
55202;SDS011;41077;52.956;6.796;2022-07-23T08:31:32;141.30;;;134.52;;
55202;SDS011;41077;52.956;6.796;2022-07-23T08:33:59;163.18;;;155.30;;
55202;SDS011;41077;52.956;6.796;2022-07-23T08:36:25;168.73;;;160.45;;
55202;SDS011;41077;52.956;6.796;2022-07-23T08:38:52;158.43;;;150.73;;
55202;SDS011;41077;52.956;6.796;2022-07-23T08:41:19;160.32;;;152.68;;
55202;SDS011;41077;52.956;6.796;2022-07-23T08:43:45;166.32;;;158.40;;
55202;SDS011;41077;52.956;6.796;2022-07-23T08:46:11;141.02;;;134.35;;
55202;SDS011;41077;52.956;6.796;2022-07-23T08:48:38;203.63;;;193.73;;
55202;SDS011;41077;52.956;6.796;2022-07-23T08:51:04;174.40;;;166.05;;
55202;SDS011;41077;52.956;6.796;2022-07-23T08:53:31;138.40;;;131.60;;
55202;SDS011;41077;52.956;6.796;2022-07-23T08:55:59;132.27;;;125.78;;
55202;SDS011;41077;52.956;6.796;2022-07-23T08:58:29;127.60;;;121.45;;
55202;SDS011;41077;52.956;6.796;2022-07-23T09:00:55;132.52;;;126.03;;
55202;SDS011;41077;52.956;6.796;2022-07-23T09:03:22;134.65;;;128.23;;
55202;SDS011;41077;52.956;6.796;2022-07-23T09:05:50;142.80;;;135.82;;
55202;SDS011;41077;52.956;6.796;2022-07-23T09:08:18;99.55;;;94.63;;
55202;SDS011;41077;52.956;6.796;2022-07-23T09:10:56;125.38;;;119.30;;
55202;SDS011;41077;52.956;6.796;2022-07-23T09:13:32;114.70;;;109.20;;
55202;SDS011;41077;52.956;6.796;2022-07-23T09:16:08;112.25;;;106.88;;
55202;SDS011;41077;52.956;6.796;2022-07-23T09:18:43;106.50;;;101.07;;
55202;SDS011;41077;52.956;6.796;2022-07-23T09:21:10;105.28;;;100.20;;
55202;SDS011;41077;52.956;6.796;2022-07-23T09:26:46;112.57;;;107.13;;
55202;SDS011;41077;52.956;6.796;2022-07-23T09:29:17;105.43;;;100.25;;
55202;SDS011;41077;52.956;6.796;2022-07-23T09:31:45;108.10;;;102.85;;
55202;SDS011;41077;52.956;6.796;2022-07-23T09:36:48;153.25;;;145.68;;
55202;SDS011;41077;52.956;6.796;2022-07-23T09:39:16;107.65;;;102.47;;
55202;SDS011;41077;52.956;6.796;2022-07-23T09:41:57;97.50;;;92.78;;
55202;SDS011;41077;52.956;6.796;2022-07-23T09:44:40;88.07;;;83.80;;
55202;SDS011;41077;52.956;6.796;2022-07-23T09:47:07;122.88;;;116.95;;
55202;SDS011;41077;52.956;6.796;2022-07-23T09:49:33;106.20;;;101.03;;
55202;SDS011;41077;52.956;6.796;2022-07-23T09:51:59;112.68;;;107.25;;
55202;SDS011;41077;52.956;6.796;2022-07-23T09:54:33;105.60;;;100.53;;
55202;SDS011;41077;52.956;6.796;2022-07-23T09:57:08;92.50;;;88.05;;
55202;SDS011;41077;52.956;6.796;2022-07-23T09:59:38;122.45;;;116.55;;
55202;SDS011;41077;52.956;6.796;2022-07-23T10:02:08;112.00;;;106.35;;
55202;SDS011;41077;52.956;6.796;2022-07-23T10:04:37;98.30;;;93.53;;
55202;SDS011;41077;52.956;6.796;2022-07-23T10:07:05;112.85;;;107.40;;
55202;SDS011;41077;52.956;6.796;2022-07-23T10:09:37;94.00;;;89.15;;
55202;SDS011;41077;52.956;6.796;2022-07-23T10:12:05;88.53;;;84.15;;
55202;SDS011;41077;52.956;6.796;2022-07-23T10:14:53;98.88;;;93.97;;
55202;SDS011;41077;52.956;6.796;2022-07-23T10:17:21;103.20;;;98.05;;
55202;SDS011;41077;52.956;6.796;2022-07-23T10:19:46;103.05;;;98.10;;
55202;SDS011;41077;52.956;6.796;2022-07-23T10:22:22;101.10;;;95.70;;
55202;SDS011;41077;52.956;6.796;2022-07-23T10:41:30;89.97;;;85.60;;
55202;SDS011;41077;52.956;6.796;2022-07-23T10:44:10;89.68;;;85.28;;
55202;SDS011;41077;52.956;6.796;2022-07-23T10:49:35;93.28;;;88.68;;
55202;SDS011;41077;52.956;6.796;2022-07-23T10:54:39;78.45;;;74.70;;
55202;SDS011;41077;52.956;6.796;2022-07-23T10:57:27;108.60;;;103.07;;
55202;SDS011;41077;52.956;6.796;2022-07-23T11:00:14;117.85;;;112.15;;
55202;SDS011;41077;52.956;6.796;2022-07-23T11:02:53;115.22;;;109.68;;
55202;SDS011;41077;52.956;6.796;2022-07-23T11:05:43;73.25;;;69.55;;
55202;SDS011;41077;52.956;6.796;2022-07-23T11:08:11;69.40;;;65.85;;
55202;SDS011;41077;52.956;6.796;2022-07-23T11:10:48;153.90;;;146.50;;
55202;SDS011;41077;52.956;6.796;2022-07-23T11:34:24;70.43;;;66.97;;
55202;SDS011;41077;52.956;6.796;2022-07-23T11:36:50;86.35;;;82.10;;
55202;SDS011;41077;52.956;6.796;2022-07-23T11:39:16;123.70;;;117.57;;
55202;SDS011;41077;52.956;6.796;2022-07-23T11:41:46;75.93;;;72.20;;
55202;SDS011;41077;52.956;6.796;2022-07-23T11:44:27;95.45;;;90.63;;
55202;SDS011;41077;52.956;6.796;2022-07-23T11:46:58;79.35;;;75.28;;
55202;SDS011;41077;52.956;6.796;2022-07-23T11:49:24;75.63;;;71.45;;
55202;SDS011;41077;52.956;6.796;2022-07-23T11:52:04;77.95;;;74.15;;
55202;SDS011;41077;52.956;6.796;2022-07-23T11:54:30;118.20;;;112.38;;
55202;SDS011;41077;52.956;6.796;2022-07-23T11:56:57;74.63;;;70.95;;
55202;SDS011;41077;52.956;6.796;2022-07-23T11:59:24;135.60;;;128.88;;
55202;SDS011;41077;52.956;6.796;2022-07-23T12:01:58;101.57;;;96.28;;
55202;SDS011;41077;52.956;6.796;2022-07-23T12:04:33;52.28;;;49.58;;
55202;SDS011;41077;52.956;6.796;2022-07-23T12:07:03;73.57;;;70.00;;
55202;SDS011;41077;52.956;6.796;2022-07-23T12:09:29;59.30;;;56.17;;
55202;SDS011;41077;52.956;6.796;2022-07-23T12:11:58;71.63;;;67.85;;
55202;SDS011;41077;52.956;6.796;2022-07-23T12:14:25;105.57;;;100.10;;
55202;SDS011;41077;52.956;6.796;2022-07-23T12:17:06;70.00;;;66.13;;
55202;SDS011;41077;52.956;6.796;2022-07-23T12:19:33;71.65;;;68.07;;
55202;SDS011;41077;52.956;6.796;2022-07-23T12:21:58;83.75;;;79.55;;
55202;SDS011;41077;52.956;6.796;2022-07-23T12:24:24;79.55;;;75.38;;
55202;SDS011;41077;52.956;6.796;2022-07-23T12:27:12;66.22;;;62.75;;
55202;SDS011;41077;52.956;6.796;2022-07-23T12:29:39;56.80;;;53.70;;
55202;SDS011;41077;52.956;6.796;2022-07-23T12:32:20;71.22;;;67.70;;
55202;SDS011;41077;52.956;6.796;2022-07-23T12:34:48;55.25;;;52.42;;
55202;SDS011;41077;52.956;6.796;2022-07-23T12:37:28;59.72;;;56.47;;
55202;SDS011;41077;52.956;6.796;2022-07-23T12:39:56;96.72;;;92.03;;
55202;SDS011;41077;52.956;6.796;2022-07-23T12:42:21;75.57;;;71.75;;
55202;SDS011;41077;52.956;6.796;2022-07-23T12:45:08;66.22;;;62.90;;
55202;SDS011;41077;52.956;6.796;2022-07-23T12:53:14;65.05;;;61.70;;
55202;SDS011;41077;52.956;6.796;2022-07-23T12:55:42;107.22;;;101.55;;
55202;SDS011;41077;52.956;6.796;2022-07-23T13:03:26;96.60;;;91.32;;
55202;SDS011;41077;52.956;6.796;2022-07-23T13:05:53;89.38;;;84.95;;
55202;SDS011;41077;52.956;6.796;2022-07-23T13:08:20;78.80;;;74.47;;
55202;SDS011;41077;52.956;6.796;2022-07-23T13:10:47;59.53;;;56.55;;
55202;SDS011;41077;52.956;6.796;2022-07-23T13:13:14;51.90;;;49.35;;
55202;SDS011;41077;52.956;6.796;2022-07-23T13:15:41;41.28;;;39.05;;
55202;SDS011;41077;52.956;6.796;2022-07-23T13:18:08;32.13;;;30.48;;
55202;SDS011;41077;52.956;6.796;2022-07-23T13:20:34;34.60;;;32.70;;
55202;SDS011;41077;52.956;6.796;2022-07-23T13:23:01;35.50;;;33.58;;
55202;SDS011;41077;52.956;6.796;2022-07-23T13:25:27;30.30;;;28.45;;
55202;SDS011;41077;52.956;6.796;2022-07-23T13:27:52;32.08;;;30.40;;
55202;SDS011;41077;52.956;6.796;2022-07-23T13:30:18;34.53;;;32.40;;
55202;SDS011;41077;52.956;6.796;2022-07-23T13:32:44;38.95;;;36.65;;
55202;SDS011;41077;52.956;6.796;2022-07-23T13:35:09;35.28;;;33.40;;
55202;SDS011;41077;52.956;6.796;2022-07-23T13:37:36;63.97;;;60.55;;
55202;SDS011;41077;52.956;6.796;2022-07-23T13:40:02;37.92;;;35.70;;
55202;SDS011;41077;52.956;6.796;2022-07-23T13:42:28;41.65;;;39.22;;
55202;SDS011;41077;52.956;6.796;2022-07-23T13:44:54;38.42;;;36.13;;
55202;SDS011;41077;52.956;6.796;2022-07-23T13:47:20;51.28;;;48.63;;
55202;SDS011;41077;52.956;6.796;2022-07-23T13:49:45;43.08;;;40.83;;
55202;SDS011;41077;52.956;6.796;2022-07-23T13:52:11;47.15;;;44.75;;
55202;SDS011;41077;52.956;6.796;2022-07-23T13:54:37;43.30;;;41.00;;
55202;SDS011;41077;52.956;6.796;2022-07-23T13:57:03;47.95;;;45.47;;
55202;SDS011;41077;52.956;6.796;2022-07-23T13:59:28;52.58;;;49.83;;
55202;SDS011;41077;52.956;6.796;2022-07-23T14:01:54;37.08;;;35.03;;
55202;SDS011;41077;52.956;6.796;2022-07-23T14:04:20;47.45;;;44.85;;
55202;SDS011;41077;52.956;6.796;2022-07-23T14:06:46;41.40;;;39.33;;
55202;SDS011;41077;52.956;6.796;2022-07-23T14:09:12;46.47;;;44.08;;
55202;SDS011;41077;52.956;6.796;2022-07-23T14:11:38;37.17;;;34.65;;
55202;SDS011;41077;52.956;6.796;2022-07-23T14:14:04;33.70;;;31.90;;
55202;SDS011;41077;52.956;6.796;2022-07-23T14:16:29;39.60;;;37.47;;
55202;SDS011;41077;52.956;6.796;2022-07-23T14:18:55;52.08;;;49.20;;
55202;SDS011;41077;52.956;6.796;2022-07-23T14:21:21;43.40;;;41.30;;
55202;SDS011;41077;52.956;6.796;2022-07-23T14:23:47;52.35;;;49.72;;
55202;SDS011;41077;52.956;6.796;2022-07-23T14:26:12;40.30;;;38.25;;
55202;SDS011;41077;52.956;6.796;2022-07-23T14:28:38;36.92;;;34.92;;
55202;SDS011;41077;52.956;6.796;2022-07-23T14:31:04;36.30;;;34.40;;
55202;SDS011;41077;52.956;6.796;2022-07-23T14:33:30;31.77;;;30.02;;
55202;SDS011;41077;52.956;6.796;2022-07-23T14:35:55;32.95;;;31.15;;
55202;SDS011;41077;52.956;6.796;2022-07-23T14:38:21;32.95;;;31.25;;
55202;SDS011;41077;52.956;6.796;2022-07-23T14:40:47;34.88;;;33.08;;
55202;SDS011;41077;52.956;6.796;2022-07-23T14:43:12;31.75;;;29.95;;
55202;SDS011;41077;52.956;6.796;2022-07-23T14:45:38;36.30;;;34.25;;
55202;SDS011;41077;52.956;6.796;2022-07-23T14:48:04;28.88;;;27.35;;
55202;SDS011;41077;52.956;6.796;2022-07-23T14:50:30;41.85;;;39.72;;
55202;SDS011;41077;52.956;6.796;2022-07-23T14:52:56;33.92;;;31.90;;
55202;SDS011;41077;52.956;6.796;2022-07-23T14:55:21;40.72;;;38.67;;
55202;SDS011;41077;52.956;6.796;2022-07-23T14:57:47;47.97;;;45.40;;
55202;SDS011;41077;52.956;6.796;2022-07-23T15:00:13;38.95;;;36.78;;
55202;SDS011;41077;52.956;6.796;2022-07-23T15:02:38;39.30;;;37.28;;